ěÝzenÝ letovÚho provozu ╚eskÚ republiky
OPMET data - Ceska Republika Aktualizace: 07.07.2020 14:31:25  UTC
SIGMET / AIRMET - NIL
Warning / Vystraha - NIL
AIREP - NIL
REG QNH
REGIONAL QNH FORECAST ISSUED 2020-07-07 11:43 AREA VALID FM/TL QNH/HPA/ : LKAA 071200/071500 1017 =
 
METAR / SPECI
METAR LKBC 071430Z AUTO 29008KT 260V330 9999 BKN072 18/05 Q1019=
METAR LKCV 071430Z 29008KT 260V320 9999 FEW046 SCT080 19/08 Q1019 NOSIG RMK BLU BLU=
METAR LKKB 071430Z 28005KT 240V330 CAVOK 19/06 Q1019 NOSIG RMK BLU BLU=
METAR LKKU 071400Z 33008KT 270V050 9999 FEW047 19/06 Q1018=
METAR LKKV 071430Z 26009KT 210V300 9999 FEW042 16/03 Q1020 RMK REG QNH 1017=
METAR LKLN 071430Z AUTO VRB05KT 9999 BKN067 19/04 Q1019=
METAR LKMT 071430Z 26009KT 9999 -SHRA BKN038 15/11 Q1019 NOSIG RMK REG QNH 1017=
METAR LKNA 071430Z 32008KT 280V340 9999 FEW040 SCT080 17/08 Q1019 NOSIG RMK BLU BLU=
METAR LKPD 071430Z 29008KT 260V320 9999 SCT045 SCT080 19/07 Q1018 NOSIG RMK BLU BLU=
METAR LKPJ 071430Z AUTO 36005KT 310V020 9999 OVC080 18/09 Q1019=
METAR LKPR 071430Z 28010KT CAVOK 21/05 Q1019 NOSIG RMK REG QNH 1017=
METAR LKTB 071430Z 34011KT 310V020 CAVOK 19/06 Q1019 NOSIG RMK REG QNH 1017=
METAR LKVO 071400Z 29010KT CAVOK 19/06 Q1019=
TAF
TAF LKBC NIL
TAF LKCV 071100Z 0712/0812 30008KT 9999 BKN030      PROB30 TEMPO 0712/0715 31012G24KT SHRA BKN025      BECMG 0714/0716 VRB02KT CAVOK      BECMG 0721/0723 18008KT SCT030      PROB30 TEMPO 0807/0812 VRB02KT 8000 RA SCT020 OVC030=
TAF LKKB 071100Z 0712/0812 27008KT CAVOK      TEMPO 0716/0800 VRB02KT      BECMG 0800/0803 23005KT BKN040      TEMPO 0810/0812 8000 RA SCT020 BKN030=
TAF LKKU NIL
TAF LKKV 071100Z 0712/0818 26006KT CAVOK      TEMPO 0804/0808 VRB02KT      BECMG 0803/0806 BKN030      TEMPO 0809/0818 26016KT 8000 -RA      PROB30 TEMPO 0809/0818 BKN014=
TAF LKLN NIL
TAF LKMT 071100Z 0712/0818 36006KT CAVOK      TEMPO 0712/0716 02010G20KT -SHRA SCT036      BECMG 0720/0722 23006KT      TEMPO 0808/0816 27016KT      BECMG 0810/0813 BKN036      TEMPO 0815/0818 -RA=
TAF LKNA 071100Z 0712/0812 31008KT CAVOK      TEMPO 0712/0716 32014G24KT SCT040      BECMG 0719/0721 VRB02KT=
TAF LKPD 071100Z 0712/0812 30008KT CAVOK      TEMPO 0712/0715 30013KT SCT040      PROB30 TEMPO 0712/0715 SHRA SCT035TCU      BECMG 0717/0719 20006KT      TEMPO 0717/0722 VRB02KT      BECMG 0802/0805 28006KT      TEMPO 0807/0810 SCT030=
TAF LKPJ NIL
TAF LKPR 071100Z 0712/0818 25008KT CAVOK      TEMPO 0715/0809 VRB02KT      BECMG 0809/0811 BKN036      TEMPO 0811/0818 -RA=
TAF LKTB 071100Z 0712/0818 30008KT CAVOK      TEMPO 0712/0715 36010G20KT      BECMG 0717/0719 VRB02KT      BECMG 0806/0809 20010KT      BECMG 0811/0814 32010KT BKN036      TEMPO 0816/0818 -RA=
TAF LKVO NIL